createdAt,value
2019-01-08T00:01:35.967Z,95864.82
2019-01-08T00:04:05.712Z,95871.53
2019-01-08T00:06:34.983Z,95867.38
2019-01-08T00:09:04.612Z,95859.75
2019-01-08T00:11:34.363Z,95861.61
2019-01-08T00:14:04.049Z,95857.45
2019-01-08T00:16:33.541Z,95864.39
2019-01-08T00:19:03.346Z,95864.70
2019-01-08T00:21:33.147Z,95867.38
2019-01-08T00:24:02.556Z,95866.92
2019-01-08T00:26:32.204Z,95864.64
2019-01-08T00:29:02.011Z,95864.40
2019-01-08T00:31:31.343Z,95869.92
2019-01-08T00:34:00.623Z,95863.70
2019-01-08T00:36:30.206Z,95866.48
2019-01-08T00:38:59.733Z,95853.09
2019-01-08T00:41:29.418Z,95867.52
2019-01-08T00:43:58.917Z,95864.75
2019-01-08T00:46:28.207Z,95864.05
2019-01-08T00:48:57.671Z,95862.09
2019-01-08T00:51:27.236Z,95861.52
2019-01-08T00:53:56.731Z,95858.65
2019-01-08T00:56:26.383Z,95857.50
2019-01-08T00:58:55.955Z,95858.86
2019-01-08T01:01:25.407Z,95854.27
2019-01-08T01:03:55.247Z,95852.75
2019-01-08T01:06:24.691Z,95845.38
2019-01-08T01:08:54.305Z,95846.06
2019-01-08T01:11:24.044Z,95844.43
2019-01-08T01:13:53.458Z,95834.52
2019-01-08T01:16:22.883Z,95835.91
2019-01-08T01:18:52.685Z,95834.73
2019-01-08T01:21:22.138Z,95830.25
2019-01-08T01:23:51.866Z,95839.14
2019-01-08T01:26:21.396Z,95832.09
2019-01-08T01:28:50.849Z,95834.64
2019-01-08T01:31:20.445Z,95827.80
2019-01-08T01:33:49.766Z,95825.95
2019-01-08T01:36:19.149Z,95825.38
2019-01-08T01:38:49.200Z,95830.83
2019-01-08T01:41:18.576Z,95815.10
2019-01-08T01:43:47.975Z,95819.48
2019-01-08T01:46:17.308Z,95816.37
2019-01-08T01:48:46.603Z,95817.31
2019-01-08T01:51:16.118Z,95819.27
2019-01-08T01:53:45.854Z,95817.42
2019-01-08T01:56:15.245Z,95817.77
2019-01-08T01:58:45.063Z,95812.47
2019-01-08T02:01:14.740Z,95813.38
2019-01-08T02:03:44.331Z,95809.33
2019-01-08T02:06:13.807Z,95809.56
2019-01-08T02:08:43.403Z,95801.94
2019-01-08T02:11:12.748Z,95805.86
2019-01-08T02:13:42.457Z,95804.33
2019-01-08T02:16:12.202Z,95797.31
2019-01-08T02:18:41.730Z,95796.86
2019-01-08T02:21:12.156Z,95790.25
2019-01-08T02:23:41.558Z,95782.04
2019-01-08T02:26:11.284Z,95783.30
2019-01-08T02:28:40.923Z,95780.64
2019-01-08T02:31:10.405Z,95774.55
2019-01-08T02:33:39.965Z,95778.02
2019-01-08T02:36:09.449Z,95774.91
2019-01-08T02:38:38.939Z,95771.86
2019-01-08T02:41:08.666Z,95762.14
2019-01-08T02:43:38.050Z,95758.70
2019-01-08T02:46:07.907Z,95763.34
2019-01-08T02:48:37.180Z,95759.52
2019-01-08T02:51:06.692Z,95764.16
2019-01-08T02:53:36.423Z,95752.79
2019-01-08T02:56:05.789Z,95758.91
2019-01-08T02:58:35.496Z,95749.33
2019-01-08T03:01:05.098Z,95757.65
2019-01-08T03:03:34.942Z,95755.11
2019-01-08T03:06:04.735Z,95750.97
2019-01-08T03:08:34.115Z,95750.97
2019-01-08T03:11:03.663Z,95748.07
2019-01-08T03:13:33.359Z,95750.51
2019-01-08T03:16:03.161Z,95748.87
2019-01-08T03:18:32.526Z,95742.64
2019-01-08T03:21:02.286Z,95750.38
2019-01-08T03:23:32.096Z,95744.48
2019-01-08T03:26:01.816Z,95746.57
2019-01-08T03:28:31.312Z,95739.30
2019-01-08T03:31:01.029Z,95737.00
2019-01-08T03:33:30.445Z,95734.09
2019-01-08T03:36:00.055Z,95736.64
2019-01-08T03:38:29.724Z,95740.11
2019-01-08T03:40:59.252Z,95740.81
2019-01-08T03:43:29.070Z,95738.97
2019-01-08T03:45:58.869Z,95746.33
2019-01-08T03:48:28.728Z,95735.28
2019-01-08T03:50:58.155Z,95738.48
2019-01-08T03:53:27.708Z,95735.73
2019-01-08T03:55:57.254Z,95732.82
2019-01-08T03:58:26.818Z,95736.17
2019-01-08T04:00:56.247Z,95732.36
2019-01-08T04:03:25.905Z,95730.41
2019-01-08T04:05:55.555Z,95724.08
2019-01-08T04:08:25.171Z,95716.91
2019-01-08T04:10:54.667Z,95722.48
2019-01-08T04:13:24.407Z,95718.42
2019-01-08T04:15:53.858Z,95715.88
2019-01-08T04:18:23.527Z,95723.05
2019-01-08T04:20:53.404Z,95716.00
2019-01-08T04:23:23.173Z,95711.50
2019-01-08T04:25:52.919Z,95710.69
2019-01-08T04:28:22.207Z,95709.09
2019-01-08T04:30:51.608Z,95701.61
2019-01-08T04:33:21.027Z,95698.58
2019-01-08T04:35:50.796Z,95692.16
2019-01-08T04:38:20.179Z,95696.62
2019-01-08T04:40:49.475Z,95695.70
2019-01-08T04:43:18.783Z,95688.67
2019-01-08T04:45:49.616Z,95685.90
2019-01-08T04:48:18.971Z,95686.59
2019-01-08T04:50:48.339Z,95685.80
2019-01-08T04:53:17.806Z,95685.69
2019-01-08T04:55:47.178Z,95688.44
2019-01-08T04:58:16.822Z,95695.95
2019-01-08T05:00:46.546Z,95692.36
2019-01-08T05:03:16.032Z,95691.55
2019-01-08T05:05:45.535Z,95690.27
2019-01-08T05:08:14.948Z,95688.78
2019-01-08T05:10:44.229Z,95682.45
2019-01-08T05:13:13.956Z,95687.14
2019-01-08T05:15:43.530Z,95681.14
2019-01-08T05:18:13.246Z,95690.50
2019-01-08T05:20:42.641Z,95688.09
2019-01-08T05:23:12.152Z,95686.70
2019-01-08T05:25:41.801Z,95687.04
2019-01-08T05:28:11.368Z,95682.20
2019-01-08T05:30:40.905Z,95677.23
2019-01-08T05:33:10.302Z,95684.72
2019-01-08T05:35:39.916Z,95674.47
2019-01-08T05:38:09.304Z,95673.88
2019-01-08T05:40:38.893Z,95675.05
2019-01-08T05:43:08.335Z,95680.83
2019-01-08T05:45:37.962Z,95675.54
2019-01-08T05:48:08.132Z,95668.83
2019-01-08T05:50:37.734Z,95666.41
2019-01-08T05:53:07.307Z,95669.97
2019-01-08T05:55:36.885Z,95666.84
2019-01-08T05:58:06.223Z,95665.23
2019-01-08T06:00:36.000Z,95663.52
2019-01-08T06:03:05.450Z,95664.87
2019-01-08T06:05:35.099Z,95661.64
2019-01-08T06:08:04.743Z,95667.66
2019-01-08T06:10:34.308Z,95676.54
2019-01-08T06:13:04.090Z,95664.41
2019-01-08T06:15:33.763Z,95658.30
2019-01-08T06:18:03.509Z,95668.67
2019-01-08T06:20:33.278Z,95663.34
2019-01-08T06:23:03.075Z,95661.47
2019-01-08T06:25:32.705Z,95664.83
2019-01-08T06:28:02.992Z,95659.53
2019-01-08T06:30:33.478Z,95661.03
2019-01-08T06:33:03.254Z,95666.93
2019-01-08T06:35:32.792Z,95668.91
2019-01-08T06:38:02.675Z,95664.25
2019-01-08T06:40:32.284Z,95661.59
2019-01-08T06:43:02.006Z,95655.38
2019-01-08T06:45:31.665Z,95656.30
2019-01-08T06:48:01.418Z,95659.98
2019-01-08T06:50:31.059Z,95653.48
2019-01-08T06:53:00.756Z,95650.50
2019-01-08T06:55:30.455Z,95652.55
2019-01-08T06:58:00.204Z,95651.07
2019-01-08T07:00:33.531Z,95650.25
2019-01-08T07:02:59.694Z,95649.31
2019-01-08T07:05:29.510Z,95642.83
2019-01-08T07:07:59.215Z,95636.44
2019-01-08T07:10:28.814Z,95634.45
2019-01-08T07:12:58.678Z,95633.13
2019-01-08T07:15:28.469Z,95628.12
2019-01-08T07:17:58.351Z,95632.64
2019-01-08T07:20:28.157Z,95629.39
2019-01-08T07:22:57.730Z,95624.56
2019-01-08T07:25:27.388Z,95632.20
2019-01-08T07:27:57.166Z,95631.83
2019-01-08T07:30:26.884Z,95635.05
2019-01-08T07:32:56.644Z,95637.61
2019-01-08T07:35:26.394Z,95632.52
2019-01-08T07:37:56.101Z,95632.55
2019-01-08T07:40:25.654Z,95633.92
2019-01-08T07:42:55.864Z,95632.42
2019-01-08T07:45:25.533Z,95629.78
2019-01-08T07:47:55.284Z,95627.44
2019-01-08T07:50:25.254Z,95625.74
2019-01-08T07:52:54.964Z,95624.31
2019-01-08T07:55:24.523Z,95624.11
2019-01-08T07:57:54.346Z,95613.30
2019-01-08T08:00:24.128Z,95616.91
2019-01-08T08:02:53.774Z,95608.05
2019-01-08T08:05:23.240Z,95607.95
2019-01-08T08:07:54.461Z,95606.89
2019-01-08T08:10:22.674Z,95600.36
2019-01-08T08:12:52.301Z,95605.13
2019-01-08T08:15:21.990Z,95607.63
2019-01-08T08:17:51.718Z,95601.67
2019-01-08T08:20:21.571Z,95599.09
2019-01-08T08:22:51.384Z,95594.21
2019-01-08T08:25:21.035Z,95593.21
2019-01-08T08:27:50.527Z,95597.44
2019-01-08T08:30:20.172Z,95591.24
2019-01-08T08:32:49.795Z,95581.67
2019-01-08T08:35:19.668Z,95580.55
2019-01-08T08:37:49.423Z,95577.13
2019-01-08T08:40:18.999Z,95577.81
2019-01-08T08:42:48.705Z,95574.86
2019-01-08T08:45:18.450Z,95574.86
2019-01-08T08:47:48.059Z,95573.45
2019-01-08T08:50:17.538Z,95566.68
2019-01-08T08:52:47.061Z,95564.92
2019-01-08T08:55:16.566Z,95565.09
2019-01-08T08:57:46.278Z,95550.78
2019-01-08T09:00:16.166Z,95538.00
2019-01-08T09:02:45.820Z,95542.11
2019-01-08T09:05:15.538Z,95532.53
2019-01-08T09:07:45.112Z,95531.28
2019-01-08T09:10:14.935Z,95520.45
2019-01-08T09:12:44.627Z,95515.88
2019-01-08T09:15:15.876Z,95518.30
2019-01-08T09:17:45.528Z,95512.14
2019-01-08T09:20:15.100Z,95504.47
2019-01-08T09:22:45.764Z,95502.84
2019-01-08T09:25:17.313Z,95499.21
2019-01-08T09:27:47.157Z,95492.41
2019-01-08T09:30:16.866Z,95488.63
2019-01-08T09:32:46.500Z,95479.08
2019-01-08T09:35:16.144Z,95470.52
2019-01-08T09:37:45.796Z,95465.61
2019-01-08T09:40:15.472Z,95464.64
2019-01-08T09:42:45.381Z,95455.69
2019-01-08T09:45:14.823Z,95454.28
2019-01-08T09:47:44.479Z,95450.06
2019-01-08T09:50:14.239Z,95444.38
2019-01-08T09:52:43.952Z,95441.11
2019-01-08T09:55:13.451Z,95440.38
2019-01-08T09:57:43.128Z,95430.64
2019-01-08T10:00:12.806Z,95421.26
2019-01-08T10:02:42.462Z,95419.23
2019-01-08T10:05:12.359Z,95407.80
2019-01-08T10:07:42.035Z,95404.44
2019-01-08T10:10:11.875Z,95395.26
2019-01-08T10:12:41.546Z,95391.08
2019-01-08T10:15:11.412Z,95377.85
2019-01-08T10:17:40.888Z,95372.70
2019-01-08T10:20:10.373Z,95370.08
2019-01-08T10:22:40.099Z,95358.13
2019-01-08T10:25:09.614Z,95354.39
2019-01-08T10:27:39.242Z,95350.91
2019-01-08T10:30:11.446Z,95356.83
2019-01-08T10:32:41.159Z,95340.33
2019-01-08T10:35:10.725Z,95328.02
2019-01-08T10:37:40.386Z,95320.95
2019-01-08T10:40:10.099Z,95311.47
2019-01-08T10:42:39.919Z,95302.58
2019-01-08T10:45:09.295Z,95301.44
2019-01-08T10:47:39.065Z,95289.83
2019-01-08T10:50:08.724Z,95290.38
2019-01-08T10:52:38.500Z,95283.22
2019-01-08T10:55:08.010Z,95267.63
2019-01-08T10:57:38.371Z,95269.48
2019-01-08T11:00:08.758Z,95257.66
2019-01-08T11:02:38.264Z,95250.53
2019-01-08T11:05:07.676Z,95246.52
2019-01-08T11:07:37.308Z,95237.00
2019-01-08T11:10:07.150Z,95235.78
2019-01-08T11:12:37.038Z,95227.59
2019-01-08T11:15:07.263Z,95221.90
2019-01-08T11:17:36.869Z,95213.34
2019-01-08T11:20:06.728Z,95208.72
2019-01-08T11:22:36.467Z,95209.18
2019-01-08T11:25:05.972Z,95203.80
2019-01-08T11:27:35.622Z,95191.83
2019-01-08T11:30:05.645Z,95181.01
2019-01-08T11:32:35.103Z,95183.86
2019-01-08T11:35:04.667Z,95171.88
2019-01-08T11:37:34.519Z,95163.70
2019-01-08T11:40:04.118Z,95149.88
2019-01-08T11:42:33.632Z,95153.36
2019-01-08T11:45:03.388Z,95148.05
2019-01-08T11:47:33.007Z,95138.09
2019-01-08T11:50:02.716Z,95130.16
2019-01-08T11:52:32.470Z,95123.53
2019-01-08T11:55:02.229Z,95126.27
2019-01-08T11:57:32.161Z,95119.62
2019-01-08T12:00:01.998Z,95111.71
2019-01-08T12:02:31.572Z,95110.27
2019-01-08T12:05:01.282Z,95106.50
2019-01-08T12:07:31.527Z,95096.53
2019-01-08T12:10:03.221Z,95082.14
2019-01-08T12:12:33.057Z,95073.42
2019-01-08T12:15:02.970Z,95063.99
2019-01-08T12:17:32.726Z,95065.55
2019-01-08T12:20:02.619Z,95074.58
2019-01-08T12:22:40.599Z,95071.33
2019-01-08T12:25:02.942Z,95061.27
2019-01-08T12:27:32.487Z,95058.39
2019-01-08T12:30:02.185Z,95046.03
2019-01-08T12:32:31.940Z,95039.01
2019-01-08T12:35:01.525Z,95045.30
2019-01-08T12:37:31.195Z,95034.34
2019-01-08T12:40:01.045Z,95040.39
2019-01-08T12:42:30.796Z,95032.09
2019-01-08T12:45:00.636Z,95032.29
2019-01-08T12:47:30.439Z,95019.44
2019-01-08T12:50:00.349Z,95020.72
2019-01-08T12:52:30.174Z,95021.48
2019-01-08T12:55:01.152Z,95020.56
2019-01-08T12:57:30.648Z,95019.07
2019-01-08T13:00:00.309Z,94998.81
2019-01-08T13:02:30.107Z,95001.87
2019-01-08T13:05:00.199Z,94982.05
2019-01-08T13:07:29.691Z,94999.64
2019-01-08T13:09:59.413Z,94986.22
2019-01-08T13:12:28.887Z,94979.67
2019-01-08T13:14:58.446Z,94989.86
2019-01-08T13:17:28.202Z,94980.41
2019-01-08T13:19:57.834Z,94983.69
2019-01-08T13:22:33.889Z,94971.77
2019-01-08T13:25:03.820Z,94970.50
2019-01-08T13:27:33.555Z,94967.42
2019-01-08T13:30:03.279Z,94972.94
2019-01-08T13:32:32.880Z,94979.29
2019-01-08T13:35:02.577Z,94985.36
2019-01-08T13:37:32.100Z,94988.30
2019-01-08T13:40:02.022Z,94991.16
2019-01-08T13:42:31.712Z,94992.94
2019-01-08T13:45:01.335Z,94995.08
2019-01-08T13:47:32.136Z,94989.45
2019-01-08T13:50:01.645Z,94987.45
2019-01-08T13:52:31.354Z,94979.62
2019-01-08T13:55:01.338Z,94981.78
2019-01-08T13:57:30.767Z,94982.34
2019-01-08T14:00:01.367Z,94983.67
2019-01-08T14:02:32.033Z,94978.33
2019-01-08T14:05:01.036Z,94972.86
2019-01-08T14:07:30.917Z,94960.72
2019-01-08T14:10:00.459Z,94950.68
2019-01-08T14:12:30.284Z,94944.11
2019-01-08T14:15:00.029Z,94935.67
2019-01-08T14:17:29.583Z,94927.17
2019-01-08T14:19:59.331Z,94921.41
2019-01-08T14:22:29.070Z,94917.72
2019-01-08T14:24:58.801Z,94920.28
2019-01-08T14:27:28.452Z,94927.81
2019-01-08T14:29:58.225Z,94924.73
2019-01-08T14:32:27.719Z,94932.28
2019-01-08T14:34:57.694Z,94923.82
2019-01-08T14:37:27.464Z,94914.83
2019-01-08T14:39:57.033Z,94918.00
2019-01-08T14:42:26.734Z,94849.33
2019-01-08T14:44:56.392Z,94900.28
2019-01-08T14:47:25.965Z,94903.33
2019-01-08T14:49:55.713Z,94899.09
2019-01-08T14:52:25.254Z,94901.25
2019-01-08T14:54:54.848Z,94892.08
2019-01-08T14:57:24.576Z,94894.44
2019-01-08T14:59:54.359Z,94897.22
2019-01-08T15:02:23.744Z,94895.02
2019-01-08T15:04:53.329Z,94889.96
2019-01-08T15:07:23.044Z,94879.06
2019-01-08T15:09:52.822Z,94889.69
2019-01-08T15:12:22.588Z,94873.83
2019-01-08T15:14:52.446Z,94872.61
2019-01-08T15:17:22.232Z,94868.75
2019-01-08T15:19:51.775Z,94873.01
2019-01-08T15:22:21.347Z,94874.45
2019-01-08T15:24:51.255Z,94872.51
2019-01-08T15:27:21.096Z,94870.98
2019-01-08T15:29:50.944Z,94873.93
2019-01-08T15:32:20.480Z,94877.73
2019-01-08T15:34:50.448Z,94865.38
2019-01-08T15:37:19.905Z,94863.82
2019-01-08T15:39:49.920Z,94862.36
2019-01-08T15:42:19.764Z,94857.43
2019-01-08T15:44:49.310Z,94857.27
2019-01-08T15:47:20.287Z,94856.83
2019-01-08T15:49:49.885Z,94851.68
2019-01-08T15:52:19.632Z,94855.50
2019-01-08T15:54:49.185Z,94858.42
2019-01-08T15:57:19.011Z,94872.41
2019-01-08T15:59:48.394Z,94876.73
2019-01-08T16:02:18.021Z,94871.71
2019-01-08T16:04:47.467Z,94866.66
2019-01-08T16:24:38.895Z,94890.13
2019-01-08T16:27:09.155Z,94889.73
2019-01-08T16:29:38.801Z,94892.38
2019-01-08T16:32:08.556Z,94894.16
2019-01-08T16:34:38.017Z,94896.35
2019-01-08T16:37:07.756Z,94899.64
2019-01-08T16:39:37.197Z,94888.41
2019-01-08T16:42:06.823Z,94893.20
2019-01-08T16:44:36.594Z,94897.34
2019-01-08T16:47:06.241Z,94898.91
2019-01-08T16:49:35.754Z,94892.76
2019-01-08T16:52:07.251Z,94893.13
2019-01-08T17:11:58.854Z,94888.31
2019-01-08T17:31:50.287Z,94866.70
2019-01-08T17:51:42.459Z,94857.87
2019-01-08T17:54:12.231Z,94865.59
2019-01-08T17:56:42.027Z,94865.94
2019-01-08T18:19:27.742Z,94867.55
2019-01-08T18:21:57.269Z,94858.31
2019-01-08T18:24:27.043Z,94854.84
2019-01-08T18:26:56.771Z,94860.06
2019-01-08T18:29:26.495Z,94855.45
2019-01-08T18:31:56.441Z,94854.02
2019-01-08T18:34:26.081Z,94860.56
2019-01-08T18:36:55.695Z,94851.63
2019-01-08T18:39:25.442Z,94846.18
2019-01-08T18:59:17.385Z,94850.65
2019-01-08T19:01:46.948Z,94849.07
2019-01-08T19:04:16.559Z,94854.69
2019-01-08T19:06:46.200Z,94849.41
2019-01-08T19:09:27.765Z,94841.06
2019-01-08T19:11:57.620Z,94839.75
2019-01-08T19:14:30.930Z,94845.57
2019-01-08T19:17:00.683Z,94841.73
2019-01-08T19:19:30.298Z,94840.63
2019-01-08T19:21:59.971Z,94834.72
2019-01-08T19:24:29.712Z,94839.19
2019-01-08T19:26:59.312Z,94839.99
2019-01-08T19:29:28.884Z,94830.72
2019-01-08T19:31:58.555Z,94818.11
2019-01-08T19:34:28.141Z,94823.55
2019-01-08T19:36:57.747Z,94813.69
2019-01-08T19:39:27.293Z,94806.35
2019-01-08T19:41:56.843Z,94811.45
2019-01-08T19:44:26.303Z,94806.31
2019-01-08T19:46:56.962Z,94794.05
2019-01-08T19:49:26.581Z,94802.48
2019-01-08T19:51:56.722Z,94785.88
2019-01-08T19:54:26.501Z,94795.28
2019-01-08T20:14:20.163Z,94788.73
2019-01-08T20:16:49.733Z,94789.07
2019-01-08T20:19:19.554Z,94774.39
2019-01-08T20:21:48.998Z,94777.72
2019-01-08T20:24:18.783Z,94777.23
2019-01-08T20:26:48.252Z,94772.59
2019-01-08T20:29:17.778Z,94769.92
2019-01-08T20:31:47.456Z,94761.95
2019-01-08T20:34:16.900Z,94762.59
2019-01-08T20:36:46.579Z,94766.38
2019-01-08T20:39:16.202Z,94764.77
2019-01-08T20:41:45.865Z,94764.45
2019-01-08T21:01:39.779Z,94737.20
2019-01-08T21:04:09.566Z,94735.31
2019-01-08T21:06:40.112Z,94734.33
2019-01-08T21:26:32.412Z,94726.78
2019-01-08T21:29:02.175Z,94731.89
2019-01-08T21:31:31.734Z,94733.52
2019-01-08T21:34:01.552Z,94736.95
2019-01-08T21:36:31.139Z,94736.02
2019-01-08T21:39:00.735Z,94741.13
2019-01-08T21:41:30.373Z,94738.30
2019-01-08T21:43:59.902Z,94733.34
2019-01-08T22:21:13.780Z,94692.80
2019-01-08T22:23:43.395Z,94696.33
2019-01-08T22:26:12.969Z,94683.23
2019-01-08T22:28:42.735Z,94688.03
2019-01-08T22:31:12.393Z,94681.63
2019-01-08T22:33:42.094Z,94682.31
2019-01-08T22:36:11.654Z,94679.77
2019-01-08T22:38:41.322Z,94676.85
2019-01-08T22:41:11.097Z,94667.81
2019-01-08T22:43:40.764Z,94671.45
2019-01-08T22:46:10.316Z,94664.16
2019-01-08T22:48:39.849Z,94658.72
2019-01-08T23:08:31.568Z,94651.87
2019-01-08T23:11:01.404Z,94650.63
2019-01-08T23:13:31.322Z,94645.36
2019-01-08T23:16:01.584Z,94645.19
2019-01-08T23:21:05.783Z,94635.76
2019-01-08T23:23:35.367Z,94639.92
2019-01-08T23:26:05.051Z,94638.67
2019-01-08T23:28:34.741Z,94631.33
2019-01-08T23:31:04.318Z,94634.48
2019-01-08T23:33:33.994Z,94637.38
2019-01-08T23:36:03.774Z,94638.31
2019-01-08T23:38:33.446Z,94636.73
2019-01-08T23:41:03.146Z,94637.06
